sensor_id;sensor_type;location;lat;lon;timestamp;P1;durP1;ratioP1;P2;durP2;ratioP2
13731;SDS011;6937;56.096;12.664;2023-04-06T00:01:07;2.97;;;1.20;;
13731;SDS011;6937;56.096;12.664;2023-04-06T00:03:33;2.22;;;1.10;;
13731;SDS011;6937;56.096;12.664;2023-04-06T00:05:59;2.55;;;1.20;;
13731;SDS011;6937;56.096;12.664;2023-04-06T00:08:25;1.30;;;1.00;;
13731;SDS011;6937;56.096;12.664;2023-04-06T00:10:51;1.88;;;1.10;;
13731;SDS011;6937;56.096;12.664;2023-04-06T00:13:16;1.92;;;1.30;;
13731;SDS011;6937;56.096;12.664;2023-04-06T00:15:42;1.83;;;1.17;;
13731;SDS011;6937;56.096;12.664;2023-04-06T00:18:07;2.92;;;1.35;;
13731;SDS011;6937;56.096;12.664;2023-04-06T00:20:32;1.73;;;1.35;;
13731;SDS011;6937;56.096;12.664;2023-04-06T00:22:58;1.70;;;1.00;;
13731;SDS011;6937;56.096;12.664;2023-04-06T00:25:23;1.30;;;1.00;;
13731;SDS011;6937;56.096;12.664;2023-04-06T00:27:48;2.15;;;1.25;;
13731;SDS011;6937;56.096;12.664;2023-04-06T00:30:14;2.50;;;1.38;;
13731;SDS011;6937;56.096;12.664;2023-04-06T00:32:39;2.42;;;1.40;;
13731;SDS011;6937;56.096;12.664;2023-04-06T00:35:05;2.85;;;1.33;;
13731;SDS011;6937;56.096;12.664;2023-04-06T00:37:31;1.50;;;1.13;;
13731;SDS011;6937;56.096;12.664;2023-04-06T00:39:57;1.90;;;1.27;;
13731;SDS011;6937;56.096;12.664;2023-04-06T00:42:22;1.45;;;1.33;;
13731;SDS011;6937;56.096;12.664;2023-04-06T00:44:54;3.05;;;1.30;;
13731;SDS011;6937;56.096;12.664;2023-04-06T00:47:21;1.67;;;1.40;;
13731;SDS011;6937;56.096;12.664;2023-04-06T00:49:48;1.30;;;1.20;;
13731;SDS011;6937;56.096;12.664;2023-04-06T00:52:13;1.55;;;1.17;;
13731;SDS011;6937;56.096;12.664;2023-04-06T00:54:39;2.03;;;1.10;;
13731;SDS011;6937;56.096;12.664;2023-04-06T00:57:05;2.25;;;1.00;;
13731;SDS011;6937;56.096;12.664;2023-04-06T00:59:30;2.83;;;1.10;;
13731;SDS011;6937;56.096;12.664;2023-04-06T01:01:56;2.20;;;1.23;;
13731;SDS011;6937;56.096;12.664;2023-04-06T01:04:21;2.42;;;1.48;;
13731;SDS011;6937;56.096;12.664;2023-04-06T01:06:49;2.85;;;1.40;;
13731;SDS011;6937;56.096;12.664;2023-04-06T01:09:16;1.42;;;1.15;;
13731;SDS011;6937;56.096;12.664;2023-04-06T01:11:41;1.92;;;1.50;;
13731;SDS011;6937;56.096;12.664;2023-04-06T01:14:07;1.88;;;1.58;;
13731;SDS011;6937;56.096;12.664;2023-04-06T01:16:33;1.85;;;1.60;;
13731;SDS011;6937;56.096;12.664;2023-04-06T01:18:58;4.25;;;1.95;;
13731;SDS011;6937;56.096;12.664;2023-04-06T01:21:24;2.10;;;1.90;;
13731;SDS011;6937;56.096;12.664;2023-04-06T01:23:50;2.47;;;1.95;;
13731;SDS011;6937;56.096;12.664;2023-04-06T01:26:15;3.25;;;2.13;;
13731;SDS011;6937;56.096;12.664;2023-04-06T01:28:41;3.03;;;2.60;;
13731;SDS011;6937;56.096;12.664;2023-04-06T01:31:07;2.60;;;2.40;;
13731;SDS011;6937;56.096;12.664;2023-04-06T01:33:33;2.88;;;2.47;;
13731;SDS011;6937;56.096;12.664;2023-04-06T01:35:59;4.38;;;2.95;;
13731;SDS011;6937;56.096;12.664;2023-04-06T01:38:25;2.88;;;2.05;;
13731;SDS011;6937;56.096;12.664;2023-04-06T01:40:51;1.77;;;1.65;;
13731;SDS011;6937;56.096;12.664;2023-04-06T01:43:17;3.88;;;2.00;;
13731;SDS011;6937;56.096;12.664;2023-04-06T01:45:42;3.85;;;2.03;;
13731;SDS011;6937;56.096;12.664;2023-04-06T01:48:07;2.30;;;2.10;;
13731;SDS011;6937;56.096;12.664;2023-04-06T01:50:33;2.83;;;2.33;;
13731;SDS011;6937;56.096;12.664;2023-04-06T01:52:58;2.30;;;1.80;;
13731;SDS011;6937;56.096;12.664;2023-04-06T01:55:23;1.90;;;1.70;;
13731;SDS011;6937;56.096;12.664;2023-04-06T01:57:49;2.00;;;1.63;;
13731;SDS011;6937;56.096;12.664;2023-04-06T02:00:15;2.25;;;1.60;;
13731;SDS011;6937;56.096;12.664;2023-04-06T02:02:41;3.08;;;1.73;;
13731;SDS011;6937;56.096;12.664;2023-04-06T02:05:06;2.72;;;1.77;;
13731;SDS011;6937;56.096;12.664;2023-04-06T02:07:32;2.92;;;1.77;;
13731;SDS011;6937;56.096;12.664;2023-04-06T02:09:57;1.98;;;1.77;;
13731;SDS011;6937;56.096;12.664;2023-04-06T02:12:23;3.20;;;2.05;;
13731;SDS011;6937;56.096;12.664;2023-04-06T02:14:48;2.85;;;1.70;;
13731;SDS011;6937;56.096;12.664;2023-04-06T02:17:14;2.17;;;1.73;;
13731;SDS011;6937;56.096;12.664;2023-04-06T02:19:39;2.45;;;1.55;;
13731;SDS011;6937;56.096;12.664;2023-04-06T02:22:05;2.92;;;1.70;;
13731;SDS011;6937;56.096;12.664;2023-04-06T02:24:30;2.45;;;1.52;;
13731;SDS011;6937;56.096;12.664;2023-04-06T02:26:56;2.38;;;1.67;;
13731;SDS011;6937;56.096;12.664;2023-04-06T02:29:21;2.17;;;1.60;;
13731;SDS011;6937;56.096;12.664;2023-04-06T02:31:47;2.50;;;1.70;;
13731;SDS011;6937;56.096;12.664;2023-04-06T02:34:12;3.22;;;2.38;;
13731;SDS011;6937;56.096;12.664;2023-04-06T02:36:42;3.35;;;2.22;;
13731;SDS011;6937;56.096;12.664;2023-04-06T02:39:11;2.53;;;2.22;;
13731;SDS011;6937;56.096;12.664;2023-04-06T02:41:38;3.63;;;2.45;;
13731;SDS011;6937;56.096;12.664;2023-04-06T02:44:03;3.53;;;2.67;;
13731;SDS011;6937;56.096;12.664;2023-04-06T02:46:30;4.55;;;2.80;;
13731;SDS011;6937;56.096;12.664;2023-04-06T02:48:56;3.20;;;2.72;;
13731;SDS011;6937;56.096;12.664;2023-04-06T02:51:21;3.30;;;3.00;;
13731;SDS011;6937;56.096;12.664;2023-04-06T02:53:46;4.70;;;3.40;;
13731;SDS011;6937;56.096;12.664;2023-04-06T02:56:12;5.68;;;2.95;;
13731;SDS011;6937;56.096;12.664;2023-04-06T02:58:37;3.35;;;3.05;;
13731;SDS011;6937;56.096;12.664;2023-04-06T03:01:03;3.15;;;2.85;;
13731;SDS011;6937;56.096;12.664;2023-04-06T03:03:28;4.68;;;3.22;;
13731;SDS011;6937;56.096;12.664;2023-04-06T03:05:53;4.53;;;3.47;;
13731;SDS011;6937;56.096;12.664;2023-04-06T03:08:21;4.53;;;3.60;;
13731;SDS011;6937;56.096;12.664;2023-04-06T03:10:46;3.90;;;3.05;;
13731;SDS011;6937;56.096;12.664;2023-04-06T03:13:11;4.43;;;3.78;;
13731;SDS011;6937;56.096;12.664;2023-04-06T03:15:37;5.78;;;3.80;;
13731;SDS011;6937;56.096;12.664;2023-04-06T03:18:02;5.50;;;3.70;;
13731;SDS011;6937;56.096;12.664;2023-04-06T03:20:28;3.90;;;3.50;;
13731;SDS011;6937;56.096;12.664;2023-04-06T03:22:53;4.30;;;3.53;;
13731;SDS011;6937;56.096;12.664;2023-04-06T03:25:18;4.20;;;3.75;;
13731;SDS011;6937;56.096;12.664;2023-04-06T03:27:43;4.45;;;3.60;;
13731;SDS011;6937;56.096;12.664;2023-04-06T03:30:09;4.38;;;3.40;;
13731;SDS011;6937;56.096;12.664;2023-04-06T03:32:35;4.10;;;3.70;;
13731;SDS011;6937;56.096;12.664;2023-04-06T03:35:00;5.07;;;3.70;;
13731;SDS011;6937;56.096;12.664;2023-04-06T03:37:25;3.75;;;3.28;;
13731;SDS011;6937;56.096;12.664;2023-04-06T03:39:51;5.25;;;4.20;;
13731;SDS011;6937;56.096;12.664;2023-04-06T03:42:17;4.10;;;3.70;;
13731;SDS011;6937;56.096;12.664;2023-04-06T03:44:42;3.95;;;3.47;;
13731;SDS011;6937;56.096;12.664;2023-04-06T03:47:07;4.63;;;4.00;;
13731;SDS011;6937;56.096;12.664;2023-04-06T03:49:33;3.90;;;3.55;;
13731;SDS011;6937;56.096;12.664;2023-04-06T03:51:58;4.28;;;3.90;;
13731;SDS011;6937;56.096;12.664;2023-04-06T03:54:23;5.50;;;4.10;;
13731;SDS011;6937;56.096;12.664;2023-04-06T03:56:49;4.90;;;4.05;;
13731;SDS011;6937;56.096;12.664;2023-04-06T03:59:14;4.90;;;4.40;;
13731;SDS011;6937;56.096;12.664;2023-04-06T04:01:40;4.95;;;4.22;;
13731;SDS011;6937;56.096;12.664;2023-04-06T04:04:05;5.45;;;4.30;;
13731;SDS011;6937;56.096;12.664;2023-04-06T04:06:30;6.55;;;5.20;;
13731;SDS011;6937;56.096;12.664;2023-04-06T04:08:56;6.80;;;5.18;;
13731;SDS011;6937;56.096;12.664;2023-04-06T04:11:21;6.90;;;5.47;;
13731;SDS011;6937;56.096;12.664;2023-04-06T04:13:46;7.55;;;6.40;;
13731;SDS011;6937;56.096;12.664;2023-04-06T04:16:12;7.90;;;6.38;;
13731;SDS011;6937;56.096;12.664;2023-04-06T04:18:37;8.32;;;6.97;;
13731;SDS011;6937;56.096;12.664;2023-04-06T04:21:02;11.50;;;7.97;;
13731;SDS011;6937;56.096;12.664;2023-04-06T04:23:28;9.90;;;7.55;;
13731;SDS011;6937;56.096;12.664;2023-04-06T04:25:53;9.38;;;7.70;;
13731;SDS011;6937;56.096;12.664;2023-04-06T04:28:19;10.80;;;8.55;;
13731;SDS011;6937;56.096;12.664;2023-04-06T04:30:44;11.35;;;9.52;;
13731;SDS011;6937;56.096;12.664;2023-04-06T04:33:10;13.93;;;11.50;;
13731;SDS011;6937;56.096;12.664;2023-04-06T04:35:35;16.55;;;11.88;;
13731;SDS011;6937;56.096;12.664;2023-04-06T04:38:01;18.08;;;14.00;;
13731;SDS011;6937;56.096;12.664;2023-04-06T04:40:26;17.95;;;14.73;;
13731;SDS011;6937;56.096;12.664;2023-04-06T04:42:51;19.02;;;15.40;;
13731;SDS011;6937;56.096;12.664;2023-04-06T04:45:17;18.05;;;13.60;;
13731;SDS011;6937;56.096;12.664;2023-04-06T04:47:42;19.17;;;14.70;;
13731;SDS011;6937;56.096;12.664;2023-04-06T04:50:08;19.17;;;14.52;;
13731;SDS011;6937;56.096;12.664;2023-04-06T04:52:33;18.95;;;15.10;;
13731;SDS011;6937;56.096;12.664;2023-04-06T04:54:59;19.45;;;15.20;;
13731;SDS011;6937;56.096;12.664;2023-04-06T04:57:24;20.42;;;15.73;;
13731;SDS011;6937;56.096;12.664;2023-04-06T04:59:49;21.10;;;15.10;;
13731;SDS011;6937;56.096;12.664;2023-04-06T05:02:16;19.65;;;15.23;;
13731;SDS011;6937;56.096;12.664;2023-04-06T05:04:41;19.23;;;16.42;;
13731;SDS011;6937;56.096;12.664;2023-04-06T05:07:07;19.70;;;16.65;;
13731;SDS011;6937;56.096;12.664;2023-04-06T05:09:33;22.08;;;17.08;;
13731;SDS011;6937;56.096;12.664;2023-04-06T05:11:59;19.80;;;16.77;;
13731;SDS011;6937;56.096;12.664;2023-04-06T05:14:25;20.98;;;17.52;;
13731;SDS011;6937;56.096;12.664;2023-04-06T05:16:54;20.55;;;16.92;;
13731;SDS011;6937;56.096;12.664;2023-04-06T05:19:19;18.55;;;16.55;;
13731;SDS011;6937;56.096;12.664;2023-04-06T05:21:45;17.02;;;14.63;;
13731;SDS011;6937;56.096;12.664;2023-04-06T05:24:10;16.48;;;13.57;;
13731;SDS011;6937;56.096;12.664;2023-04-06T05:26:36;14.35;;;12.80;;
13731;SDS011;6937;56.096;12.664;2023-04-06T05:29:01;15.77;;;13.02;;
13731;SDS011;6937;56.096;12.664;2023-04-06T05:31:27;14.77;;;11.70;;
13731;SDS011;6937;56.096;12.664;2023-04-06T05:33:52;11.73;;;10.40;;
13731;SDS011;6937;56.096;12.664;2023-04-06T05:36:18;12.93;;;9.88;;
13731;SDS011;6937;56.096;12.664;2023-04-06T05:38:43;12.50;;;10.32;;
13731;SDS011;6937;56.096;12.664;2023-04-06T05:41:08;13.07;;;10.25;;
13731;SDS011;6937;56.096;12.664;2023-04-06T05:43:34;16.38;;;12.48;;
13731;SDS011;6937;56.096;12.664;2023-04-06T05:45:59;13.55;;;12.15;;
13731;SDS011;6937;56.096;12.664;2023-04-06T05:48:25;12.48;;;10.32;;
13731;SDS011;6937;56.096;12.664;2023-04-06T05:50:51;11.52;;;9.57;;
13731;SDS011;6937;56.096;12.664;2023-04-06T05:53:16;11.05;;;7.68;;
13731;SDS011;6937;56.096;12.664;2023-04-06T05:55:42;6.90;;;6.20;;
13731;SDS011;6937;56.096;12.664;2023-04-06T05:58:07;7.40;;;5.55;;
13731;SDS011;6937;56.096;12.664;2023-04-06T06:00:32;6.45;;;5.00;;
13731;SDS011;6937;56.096;12.664;2023-04-06T06:02:58;6.55;;;4.85;;
13731;SDS011;6937;56.096;12.664;2023-04-06T06:05:23;8.00;;;4.63;;
13731;SDS011;6937;56.096;12.664;2023-04-06T06:07:49;7.70;;;4.63;;
13731;SDS011;6937;56.096;12.664;2023-04-06T06:10:14;6.22;;;4.82;;
13731;SDS011;6937;56.096;12.664;2023-04-06T06:12:40;5.82;;;4.47;;
13731;SDS011;6937;56.096;12.664;2023-04-06T06:15:05;6.78;;;4.70;;
13731;SDS011;6937;56.096;12.664;2023-04-06T06:17:31;7.35;;;4.40;;
13731;SDS011;6937;56.096;12.664;2023-04-06T06:19:57;7.32;;;5.35;;
13731;SDS011;6937;56.096;12.664;2023-04-06T06:22:22;5.97;;;4.90;;
13731;SDS011;6937;56.096;12.664;2023-04-06T06:24:47;6.70;;;4.82;;
13731;SDS011;6937;56.096;12.664;2023-04-06T06:27:14;6.50;;;4.50;;
13731;SDS011;6937;56.096;12.664;2023-04-06T06:29:40;7.35;;;3.65;;
13731;SDS011;6937;56.096;12.664;2023-04-06T06:32:05;5.05;;;3.70;;
13731;SDS011;6937;56.096;12.664;2023-04-06T06:34:30;5.53;;;3.85;;
13731;SDS011;6937;56.096;12.664;2023-04-06T06:36:56;6.05;;;3.60;;
13731;SDS011;6937;56.096;12.664;2023-04-06T06:39:21;7.28;;;3.90;;
13731;SDS011;6937;56.096;12.664;2023-04-06T06:41:47;5.47;;;3.00;;
13731;SDS011;6937;56.096;12.664;2023-04-06T06:44:12;5.85;;;3.22;;
13731;SDS011;6937;56.096;12.664;2023-04-06T06:46:37;6.95;;;4.03;;
13731;SDS011;6937;56.096;12.664;2023-04-06T06:49:03;5.00;;;3.20;;
13731;SDS011;6937;56.096;12.664;2023-04-06T06:51:28;5.70;;;3.03;;
13731;SDS011;6937;56.096;12.664;2023-04-06T06:53:53;6.38;;;2.92;;
13731;SDS011;6937;56.096;12.664;2023-04-06T06:56:19;4.85;;;2.60;;
13731;SDS011;6937;56.096;12.664;2023-04-06T06:58:44;4.85;;;2.60;;
13731;SDS011;6937;56.096;12.664;2023-04-06T07:01:10;5.43;;;3.03;;
13731;SDS011;6937;56.096;12.664;2023-04-06T07:03:35;4.80;;;2.67;;
13731;SDS011;6937;56.096;12.664;2023-04-06T07:06:01;4.53;;;2.85;;
13731;SDS011;6937;56.096;12.664;2023-04-06T07:08:26;3.28;;;2.50;;
13731;SDS011;6937;56.096;12.664;2023-04-06T07:10:51;4.35;;;2.72;;
13731;SDS011;6937;56.096;12.664;2023-04-06T07:13:18;3.70;;;2.17;;
13731;SDS011;6937;56.096;12.664;2023-04-06T07:15:47;6.18;;;2.00;;
13731;SDS011;6937;56.096;12.664;2023-04-06T07:18:16;3.45;;;2.28;;
13731;SDS011;6937;56.096;12.664;2023-04-06T07:20:42;2.85;;;1.90;;
13731;SDS011;6937;56.096;12.664;2023-04-06T07:23:07;3.35;;;1.65;;
13731;SDS011;6937;56.096;12.664;2023-04-06T07:25:33;5.18;;;1.92;;
13731;SDS011;6937;56.096;12.664;2023-04-06T07:27:58;3.10;;;2.00;;
13731;SDS011;6937;56.096;12.664;2023-04-06T07:30:24;5.05;;;2.28;;
13731;SDS011;6937;56.096;12.664;2023-04-06T07:32:51;3.58;;;1.95;;
13731;SDS011;6937;56.096;12.664;2023-04-06T07:35:17;3.40;;;2.30;;
13731;SDS011;6937;56.096;12.664;2023-04-06T07:37:42;4.90;;;2.20;;
13731;SDS011;6937;56.096;12.664;2023-04-06T07:40:08;3.25;;;1.77;;
13731;SDS011;6937;56.096;12.664;2023-04-06T07:42:33;3.30;;;2.20;;
13731;SDS011;6937;56.096;12.664;2023-04-06T07:44:59;5.07;;;2.10;;
13731;SDS011;6937;56.096;12.664;2023-04-06T07:47:24;5.22;;;1.98;;
13731;SDS011;6937;56.096;12.664;2023-04-06T07:49:50;4.70;;;2.00;;
13731;SDS011;6937;56.096;12.664;2023-04-06T07:52:15;3.05;;;1.80;;
13731;SDS011;6937;56.096;12.664;2023-04-06T07:54:40;2.85;;;1.70;;
13731;SDS011;6937;56.096;12.664;2023-04-06T07:57:06;2.80;;;1.52;;
13731;SDS011;6937;56.096;12.664;2023-04-06T07:59:32;6.65;;;2.40;;
13731;SDS011;6937;56.096;12.664;2023-04-06T08:01:57;3.80;;;1.90;;
13731;SDS011;6937;56.096;12.664;2023-04-06T08:04:23;3.20;;;2.00;;
13731;SDS011;6937;56.096;12.664;2023-04-06T08:06:48;4.03;;;1.92;;
13731;SDS011;6937;56.096;12.664;2023-04-06T08:09:13;3.90;;;1.60;;
13731;SDS011;6937;56.096;12.664;2023-04-06T08:11:39;4.35;;;2.30;;
13731;SDS011;6937;56.096;12.664;2023-04-06T08:14:04;3.40;;;1.90;;
13731;SDS011;6937;56.096;12.664;2023-04-06T08:16:30;3.63;;;2.00;;
13731;SDS011;6937;56.096;12.664;2023-04-06T08:18:55;4.07;;;2.00;;
13731;SDS011;6937;56.096;12.664;2023-04-06T08:21:21;3.33;;;2.20;;
13731;SDS011;6937;56.096;12.664;2023-04-06T08:23:47;4.93;;;1.95;;
13731;SDS011;6937;56.096;12.664;2023-04-06T08:26:12;4.35;;;1.98;;
13731;SDS011;6937;56.096;12.664;2023-04-06T08:28:37;3.92;;;2.42;;
13731;SDS011;6937;56.096;12.664;2023-04-06T08:31:06;4.70;;;1.95;;
13731;SDS011;6937;56.096;12.664;2023-04-06T08:33:32;3.33;;;1.90;;
13731;SDS011;6937;56.096;12.664;2023-04-06T08:36:06;4.93;;;2.05;;
13731;SDS011;6937;56.096;12.664;2023-04-06T08:38:32;3.30;;;1.92;;
13731;SDS011;6937;56.096;12.664;2023-04-06T08:40:58;4.15;;;1.70;;
13731;SDS011;6937;56.096;12.664;2023-04-06T08:43:23;3.78;;;1.92;;
13731;SDS011;6937;56.096;12.664;2023-04-06T08:45:52;2.92;;;1.60;;
13731;SDS011;6937;56.096;12.664;2023-04-06T08:48:17;2.85;;;1.75;;
13731;SDS011;6937;56.096;12.664;2023-04-06T08:50:43;5.30;;;2.30;;
13731;SDS011;6937;56.096;12.664;2023-04-06T08:53:09;5.57;;;1.73;;
13731;SDS011;6937;56.096;12.664;2023-04-06T08:55:36;3.50;;;2.00;;
13731;SDS011;6937;56.096;12.664;2023-04-06T08:58:03;1.58;;;1.38;;
13731;SDS011;6937;56.096;12.664;2023-04-06T09:00:31;3.58;;;2.08;;
13731;SDS011;6937;56.096;12.664;2023-04-06T09:02:57;4.45;;;1.92;;
13731;SDS011;6937;56.096;12.664;2023-04-06T09:05:23;5.15;;;2.38;;
13731;SDS011;6937;56.096;12.664;2023-04-06T09:07:50;4.13;;;2.00;;
13731;SDS011;6937;56.096;12.664;2023-04-06T09:10:16;3.50;;;2.10;;
13731;SDS011;6937;56.096;12.664;2023-04-06T09:12:42;3.38;;;1.92;;
13731;SDS011;6937;56.096;12.664;2023-04-06T09:15:17;2.95;;;1.63;;
13731;SDS011;6937;56.096;12.664;2023-04-06T09:17:46;3.17;;;1.83;;
13731;SDS011;6937;56.096;12.664;2023-04-06T09:20:12;2.58;;;1.83;;
13731;SDS011;6937;56.096;12.664;2023-04-06T09:22:38;3.95;;;1.80;;
13731;SDS011;6937;56.096;12.664;2023-04-06T09:25:04;7.93;;;2.20;;
13731;SDS011;6937;56.096;12.664;2023-04-06T09:27:35;3.58;;;2.25;;
13731;SDS011;6937;56.096;12.664;2023-04-06T09:30:03;3.45;;;2.20;;
13731;SDS011;6937;56.096;12.664;2023-04-06T09:32:30;2.67;;;1.90;;
13731;SDS011;6937;56.096;12.664;2023-04-06T09:35:06;2.05;;;1.65;;
13731;SDS011;6937;56.096;12.664;2023-04-06T09:37:32;4.47;;;1.83;;
13731;SDS011;6937;56.096;12.664;2023-04-06T09:40:04;3.33;;;1.95;;
13731;SDS011;6937;56.096;12.664;2023-04-06T09:42:32;4.97;;;1.90;;
13731;SDS011;6937;56.096;12.664;2023-04-06T09:44:58;2.50;;;1.63;;
13731;SDS011;6937;56.096;12.664;2023-04-06T09:47:23;3.92;;;1.80;;
13731;SDS011;6937;56.096;12.664;2023-04-06T09:49:51;4.63;;;2.10;;
13731;SDS011;6937;56.096;12.664;2023-04-06T09:52:21;5.43;;;2.05;;
13731;SDS011;6937;56.096;12.664;2023-04-06T09:54:50;2.67;;;1.88;;
13731;SDS011;6937;56.096;12.664;2023-04-06T09:57:25;4.30;;;1.60;;
13731;SDS011;6937;56.096;12.664;2023-04-06T10:00:06;2.58;;;1.60;;
13731;SDS011;6937;56.096;12.664;2023-04-06T10:02:41;3.20;;;2.00;;
13731;SDS011;6937;56.096;12.664;2023-04-06T10:05:12;3.45;;;1.77;;
13731;SDS011;6937;56.096;12.664;2023-04-06T10:07:45;3.60;;;1.58;;
13731;SDS011;6937;56.096;12.664;2023-04-06T10:10:13;2.53;;;1.65;;
13731;SDS011;6937;56.096;12.664;2023-04-06T10:12:40;3.05;;;1.65;;
13731;SDS011;6937;56.096;12.664;2023-04-06T10:15:07;4.85;;;1.70;;
13731;SDS011;6937;56.096;12.664;2023-04-06T10:17:33;3.00;;;1.50;;
13731;SDS011;6937;56.096;12.664;2023-04-06T10:25:53;3.13;;;1.50;;
13731;SDS011;6937;56.096;12.664;2023-04-06T10:28:20;3.35;;;1.60;;
13731;SDS011;6937;56.096;12.664;2023-04-06T10:30:46;4.00;;;1.48;;
13731;SDS011;6937;56.096;12.664;2023-04-06T10:33:19;3.17;;;1.50;;
13731;SDS011;6937;56.096;12.664;2023-04-06T10:35:45;2.90;;;1.58;;
13731;SDS011;6937;56.096;12.664;2023-04-06T10:38:11;3.35;;;1.50;;
13731;SDS011;6937;56.096;12.664;2023-04-06T10:40:39;3.00;;;1.27;;
13731;SDS011;6937;56.096;12.664;2023-04-06T10:43:10;3.00;;;1.40;;
13731;SDS011;6937;56.096;12.664;2023-04-06T10:45:45;3.22;;;1.33;;
13731;SDS011;6937;56.096;12.664;2023-04-06T10:48:20;2.75;;;1.50;;
13731;SDS011;6937;56.096;12.664;2023-04-06T10:50:55;2.17;;;1.20;;
13731;SDS011;6937;56.096;12.664;2023-04-06T10:53:25;1.95;;;1.38;;
13731;SDS011;6937;56.096;12.664;2023-04-06T10:55:51;2.60;;;1.63;;
13731;SDS011;6937;56.096;12.664;2023-04-06T10:58:19;2.20;;;1.48;;
13731;SDS011;6937;56.096;12.664;2023-04-06T11:00:48;3.60;;;1.60;;
13731;SDS011;6937;56.096;12.664;2023-04-06T11:03:14;2.70;;;1.50;;
13731;SDS011;6937;56.096;12.664;2023-04-06T11:05:49;2.92;;;1.67;;
13731;SDS011;6937;56.096;12.664;2023-04-06T11:08:24;3.42;;;1.33;;
13731;SDS011;6937;56.096;12.664;2023-04-06T11:11:07;2.72;;;1.60;;
13731;SDS011;6937;56.096;12.664;2023-04-06T11:16:06;2.13;;;1.38;;
13731;SDS011;6937;56.096;12.664;2023-04-06T11:18:31;2.70;;;1.42;;
13731;SDS011;6937;56.096;12.664;2023-04-06T11:20:57;4.57;;;1.50;;
13731;SDS011;6937;56.096;12.664;2023-04-06T11:23:23;3.63;;;1.70;;
13731;SDS011;6937;56.096;12.664;2023-04-06T11:25:51;2.42;;;1.38;;
13731;SDS011;6937;56.096;12.664;2023-04-06T11:28:17;1.80;;;1.25;;
13731;SDS011;6937;56.096;12.664;2023-04-06T11:30:43;3.00;;;1.50;;
13731;SDS011;6937;56.096;12.664;2023-04-06T11:33:08;1.98;;;1.30;;
13731;SDS011;6937;56.096;12.664;2023-04-06T11:35:34;3.22;;;1.67;;
13731;SDS011;6937;56.096;12.664;2023-04-06T11:38:02;2.40;;;1.48;;
13731;SDS011;6937;56.096;12.664;2023-04-06T11:40:28;3.63;;;1.70;;
13731;SDS011;6937;56.096;12.664;2023-04-06T11:42:55;2.28;;;1.77;;
13731;SDS011;6937;56.096;12.664;2023-04-06T11:45:21;2.55;;;1.50;;
13731;SDS011;6937;56.096;12.664;2023-04-06T11:47:55;2.30;;;1.60;;
13731;SDS011;6937;56.096;12.664;2023-04-06T11:50:25;2.95;;;1.90;;
13731;SDS011;6937;56.096;12.664;2023-04-06T11:53:00;4.50;;;1.88;;
13731;SDS011;6937;56.096;12.664;2023-04-06T11:55:26;4.47;;;1.92;;
13731;SDS011;6937;56.096;12.664;2023-04-06T11:57:52;3.63;;;2.00;;
13731;SDS011;6937;56.096;12.664;2023-04-06T12:00:17;3.60;;;2.10;;
13731;SDS011;6937;56.096;12.664;2023-04-06T12:02:47;5.00;;;2.10;;
13731;SDS011;6937;56.096;12.664;2023-04-06T12:05:13;2.92;;;2.00;;
13731;SDS011;6937;56.096;12.664;2023-04-06T12:07:38;5.25;;;2.60;;
13731;SDS011;6937;56.096;12.664;2023-04-06T12:10:04;3.45;;;2.50;;
13731;SDS011;6937;56.096;12.664;2023-04-06T12:12:30;3.03;;;2.33;;
13731;SDS011;6937;56.096;12.664;2023-04-06T12:14:56;5.93;;;2.95;;
13731;SDS011;6937;56.096;12.664;2023-04-06T12:17:22;3.35;;;3.03;;
13731;SDS011;6937;56.096;12.664;2023-04-06T12:19:48;3.50;;;2.58;;
13731;SDS011;6937;56.096;12.664;2023-04-06T12:22:13;4.13;;;3.22;;
13731;SDS011;6937;56.096;12.664;2023-04-06T12:24:38;3.30;;;2.95;;
13731;SDS011;6937;56.096;12.664;2023-04-06T12:27:04;4.50;;;2.88;;
13731;SDS011;6937;56.096;12.664;2023-04-06T12:29:30;4.15;;;2.60;;
13731;SDS011;6937;56.096;12.664;2023-04-06T12:31:55;4.03;;;2.70;;
13731;SDS011;6937;56.096;12.664;2023-04-06T12:34:21;3.60;;;2.80;;
13731;SDS011;6937;56.096;12.664;2023-04-06T12:36:46;3.50;;;2.80;;
13731;SDS011;6937;56.096;12.664;2023-04-06T12:39:11;4.47;;;2.60;;
13731;SDS011;6937;56.096;12.664;2023-04-06T12:41:37;3.78;;;2.85;;
13731;SDS011;6937;56.096;12.664;2023-04-06T12:44:05;5.13;;;2.80;;
13731;SDS011;6937;56.096;12.664;2023-04-06T12:46:31;2.90;;;2.60;;
13731;SDS011;6937;56.096;12.664;2023-04-06T12:48:56;7.03;;;3.70;;
13731;SDS011;6937;56.096;12.664;2023-04-06T12:51:22;4.20;;;3.05;;
13731;SDS011;6937;56.096;12.664;2023-04-06T12:53:48;3.95;;;3.10;;
13731;SDS011;6937;56.096;12.664;2023-04-06T12:56:14;5.13;;;3.30;;
13731;SDS011;6937;56.096;12.664;2023-04-06T12:58:42;3.33;;;2.90;;
13731;SDS011;6937;56.096;12.664;2023-04-06T13:01:08;5.05;;;3.25;;
13731;SDS011;6937;56.096;12.664;2023-04-06T13:03:34;4.07;;;3.20;;
13731;SDS011;6937;56.096;12.664;2023-04-06T13:06:00;5.80;;;3.08;;
13731;SDS011;6937;56.096;12.664;2023-04-06T13:08:26;4.28;;;3.20;;
13731;SDS011;6937;56.096;12.664;2023-04-06T13:10:54;4.63;;;3.75;;
13731;SDS011;6937;56.096;12.664;2023-04-06T13:13:24;4.05;;;3.22;;
13731;SDS011;6937;56.096;12.664;2023-04-06T13:15:50;5.43;;;3.33;;
13731;SDS011;6937;56.096;12.664;2023-04-06T13:18:17;7.53;;;4.07;;
13731;SDS011;6937;56.096;12.664;2023-04-06T13:20:43;6.72;;;3.88;;
13731;SDS011;6937;56.096;12.664;2023-04-06T13:23:08;4.75;;;3.65;;
13731;SDS011;6937;56.096;12.664;2023-04-06T13:25:34;5.65;;;3.80;;
13731;SDS011;6937;56.096;12.664;2023-04-06T13:28:00;3.78;;;3.25;;
13731;SDS011;6937;56.096;12.664;2023-04-06T13:30:25;4.85;;;3.60;;
13731;SDS011;6937;56.096;12.664;2023-04-06T13:32:51;4.95;;;3.92;;
13731;SDS011;6937;56.096;12.664;2023-04-06T13:35:16;7.53;;;4.22;;
13731;SDS011;6937;56.096;12.664;2023-04-06T13:37:43;5.40;;;3.95;;
13731;SDS011;6937;56.096;12.664;2023-04-06T13:40:09;4.70;;;4.05;;
13731;SDS011;6937;56.096;12.664;2023-04-06T13:42:35;5.57;;;4.38;;
13731;SDS011;6937;56.096;12.664;2023-04-06T13:45:01;6.80;;;4.50;;
13731;SDS011;6937;56.096;12.664;2023-04-06T13:47:26;5.65;;;4.07;;
13731;SDS011;6937;56.096;12.664;2023-04-06T13:49:52;5.40;;;4.32;;
13731;SDS011;6937;56.096;12.664;2023-04-06T13:52:18;4.95;;;4.47;;
13731;SDS011;6937;56.096;12.664;2023-04-06T13:54:44;5.20;;;4.28;;
13731;SDS011;6937;56.096;12.664;2023-04-06T13:57:10;5.78;;;4.43;;
13731;SDS011;6937;56.096;12.664;2023-04-06T13:59:36;4.82;;;4.32;;
13731;SDS011;6937;56.096;12.664;2023-04-06T14:02:02;5.63;;;4.28;;
13731;SDS011;6937;56.096;12.664;2023-04-06T14:04:29;7.40;;;4.30;;
13731;SDS011;6937;56.096;12.664;2023-04-06T14:06:55;5.22;;;4.00;;
13731;SDS011;6937;56.096;12.664;2023-04-06T14:09:20;4.65;;;3.67;;
13731;SDS011;6937;56.096;12.664;2023-04-06T14:11:46;4.15;;;3.75;;
13731;SDS011;6937;56.096;12.664;2023-04-06T14:14:11;4.25;;;3.50;;
13731;SDS011;6937;56.096;12.664;2023-04-06T14:16:37;4.32;;;3.92;;
13731;SDS011;6937;56.096;12.664;2023-04-06T14:19:02;5.95;;;3.67;;
13731;SDS011;6937;56.096;12.664;2023-04-06T14:21:28;5.28;;;4.20;;
13731;SDS011;6937;56.096;12.664;2023-04-06T14:23:53;5.65;;;4.43;;
13731;SDS011;6937;56.096;12.664;2023-04-06T14:26:19;4.70;;;4.00;;
13731;SDS011;6937;56.096;12.664;2023-04-06T14:28:44;5.05;;;3.50;;
13731;SDS011;6937;56.096;12.664;2023-04-06T14:31:11;4.85;;;3.50;;
13731;SDS011;6937;56.096;12.664;2023-04-06T14:33:40;4.63;;;3.83;;
13731;SDS011;6937;56.096;12.664;2023-04-06T14:36:08;6.18;;;3.60;;
13731;SDS011;6937;56.096;12.664;2023-04-06T14:38:33;4.00;;;3.58;;
13731;SDS011;6937;56.096;12.664;2023-04-06T14:40:59;4.88;;;3.70;;
13731;SDS011;6937;56.096;12.664;2023-04-06T14:43:25;6.05;;;3.78;;
13731;SDS011;6937;56.096;12.664;2023-04-06T14:45:51;4.30;;;3.88;;
13731;SDS011;6937;56.096;12.664;2023-04-06T14:48:16;3.80;;;3.40;;